createdAt,value
2022-12-14T00:01:36.113Z,95272.09
2022-12-14T00:04:02.730Z,95272.34
2022-12-14T00:06:31.872Z,95266.19
2022-12-14T00:09:00.953Z,95268.38
2022-12-14T00:11:28.604Z,95269.38
2022-12-14T00:13:58.018Z,95218.16
2022-12-14T00:16:26.761Z,95241.66
2022-12-14T00:18:55.626Z,95253.53
2022-12-14T00:21:23.237Z,95205.25
2022-12-14T00:23:51.221Z,95245.06
2022-12-14T00:26:21.091Z,95252.25
2022-12-14T00:28:49.517Z,95240.44
2022-12-14T00:31:16.677Z,95240.28
2022-12-14T00:33:44.202Z,95237.97
2022-12-14T00:36:12.357Z,95222.97
2022-12-14T00:38:40.040Z,95228.41
2022-12-14T00:41:07.402Z,95205.56
2022-12-14T00:43:34.239Z,95245.31
2022-12-14T00:46:01.134Z,95239.09
2022-12-14T00:48:28.785Z,95231.47
2022-12-14T00:50:56.683Z,95233.53
2022-12-14T00:53:24.626Z,95242.25
2022-12-14T00:55:52.208Z,95233.31
2022-12-14T00:58:20.815Z,95249.31
2022-12-14T01:00:57.754Z,95241.63
2022-12-14T01:03:24.675Z,95250.09
2022-12-14T01:05:51.508Z,95248.28
2022-12-14T01:08:18.112Z,95224.47
2022-12-14T01:10:44.888Z,95247.56
2022-12-14T01:13:11.820Z,95257.34
2022-12-14T01:15:38.563Z,95247.69
2022-12-14T01:18:05.596Z,95245.53
2022-12-14T01:20:32.292Z,95231.34
2022-12-14T01:22:58.918Z,95226.13
2022-12-14T01:25:25.754Z,95211.72
2022-12-14T01:27:53.258Z,95236.66
2022-12-14T01:30:21.129Z,95206.91
2022-12-14T01:32:47.729Z,95210.50
2022-12-14T01:35:14.874Z,95195.56
2022-12-14T01:37:41.608Z,95231.06
2022-12-14T01:40:09.125Z,95224.06
2022-12-14T01:42:37.023Z,95223.50
2022-12-14T01:45:05.406Z,95218.91
2022-12-14T01:47:43.137Z,95214.25
2022-12-14T01:50:13.271Z,95186.38
2022-12-14T01:52:46.957Z,95211.25
2022-12-14T01:55:27.542Z,95215.63
2022-12-14T01:58:16.372Z,95194.72
2022-12-14T02:00:44.703Z,95212.28
2022-12-14T02:03:16.928Z,95220.56
2022-12-14T02:05:50.735Z,95193.00
2022-12-14T02:08:18.599Z,95189.66
2022-12-14T02:10:46.290Z,95207.78
2022-12-14T02:13:34.261Z,95208.84
2022-12-14T02:16:01.181Z,95182.59
2022-12-14T02:18:31.035Z,95164.03
2022-12-14T02:21:19.199Z,95183.22
2022-12-14T02:24:07.993Z,95180.88
2022-12-14T02:26:43.810Z,95181.97
2022-12-14T02:29:37.526Z,95162.63
2022-12-14T02:32:18.952Z,95186.31
2022-12-14T02:35:16.191Z,95191.47
2022-12-14T02:37:49.013Z,95161.50
2022-12-14T02:40:28.081Z,95171.63
2022-12-14T02:42:54.709Z,95178.63
2022-12-14T02:45:35.595Z,95177.09
2022-12-14T02:48:09.186Z,95168.59
2022-12-14T02:51:06.404Z,95136.81
2022-12-14T02:53:58.972Z,95163.66
2022-12-14T02:56:45.165Z,95184.31
2022-12-14T02:59:12.092Z,95073.25
2022-12-14T03:01:40.990Z,95163.13
2022-12-14T03:04:08.356Z,95194.59
2022-12-14T03:06:35.228Z,95193.38
2022-12-14T03:09:17.868Z,95163.16
2022-12-14T03:11:56.054Z,95178.22
2022-12-14T03:14:31.487Z,95137.41
2022-12-14T03:17:05.228Z,95151.41
2022-12-14T03:19:40.564Z,95161.25
2022-12-14T03:22:31.828Z,95161.00
2022-12-14T03:25:03.097Z,95157.91
2022-12-14T03:27:34.719Z,95128.13
2022-12-14T03:30:10.048Z,95149.44
2022-12-14T03:32:42.727Z,95100.72
2022-12-14T03:35:23.467Z,95103.78
2022-12-14T03:37:54.014Z,95104.16
2022-12-14T03:40:29.412Z,95113.94
2022-12-14T03:43:01.107Z,95120.72
2022-12-14T03:45:43.833Z,95123.50
2022-12-14T03:48:52.608Z,95120.97
2022-12-14T03:51:41.342Z,95080.75
2022-12-14T03:54:24.252Z,95095.03
2022-12-14T03:57:04.529Z,95089.38
2022-12-14T03:59:58.164Z,95090.91
2022-12-14T04:02:47.311Z,95054.28
2022-12-14T04:05:48.542Z,95071.91
2022-12-14T04:08:31.964Z,95074.72
2022-12-14T04:11:21.600Z,95068.59
2022-12-14T04:14:16.253Z,95065.81
2022-12-14T04:17:04.289Z,95030.22
2022-12-14T04:19:41.296Z,95045.19
2022-12-14T04:22:13.048Z,95031.84
2022-12-14T04:25:20.077Z,94991.91
2022-12-14T04:27:58.775Z,95027.50
2022-12-14T04:30:32.210Z,95031.63
2022-12-14T04:33:31.155Z,95034.97
2022-12-14T04:36:03.412Z,95021.28
2022-12-14T04:38:34.800Z,94986.56
2022-12-14T04:41:06.480Z,95015.47
2022-12-14T04:43:41.025Z,95018.88
2022-12-14T04:46:12.628Z,95029.41
2022-12-14T04:48:50.828Z,95033.31
2022-12-14T04:51:35.708Z,95036.34
2022-12-14T04:54:27.967Z,95013.88
2022-12-14T04:57:19.141Z,95040.75
2022-12-14T04:59:47.075Z,95031.13
2022-12-14T05:02:19.888Z,95045.59
2022-12-14T05:05:05.032Z,95049.47
2022-12-14T05:07:31.588Z,95037.69
2022-12-14T05:10:10.113Z,95027.34
2022-12-14T05:12:46.898Z,95020.69
2022-12-14T05:15:18.691Z,94972.50
2022-12-14T05:17:45.436Z,95002.13
2022-12-14T05:20:18.091Z,94972.78
2022-12-14T05:22:44.991Z,95011.41
2022-12-14T05:25:11.641Z,94999.53
2022-12-14T05:27:38.554Z,95007.03
2022-12-14T05:30:06.676Z,94990.50
2022-12-14T05:32:33.794Z,94985.41
2022-12-14T05:35:00.528Z,94983.03
2022-12-14T05:37:27.173Z,94982.78
2022-12-14T05:39:54.612Z,94987.72
2022-12-14T05:42:21.517Z,94952.22
2022-12-14T05:44:48.099Z,94945.28
2022-12-14T05:47:14.767Z,94951.19
2022-12-14T05:49:41.517Z,94975.44
2022-12-14T05:52:08.089Z,94958.69
2022-12-14T05:54:34.697Z,94939.13
2022-12-14T05:57:01.442Z,94937.31
2022-12-14T05:59:28.067Z,94939.38
2022-12-14T06:01:54.664Z,94931.69
2022-12-14T06:04:21.374Z,94930.69
2022-12-14T06:06:48.090Z,94955.88
2022-12-14T06:09:16.072Z,94942.56
2022-12-14T06:11:43.979Z,94912.97
2022-12-14T06:14:11.681Z,94951.03
2022-12-14T06:16:42.850Z,94945.94
2022-12-14T06:19:11.805Z,94940.00
2022-12-14T06:21:40.553Z,94940.53
2022-12-14T06:24:08.364Z,94908.09
2022-12-14T06:26:42.181Z,94931.50
2022-12-14T06:29:18.156Z,94939.47
2022-12-14T06:31:45.155Z,94902.19
2022-12-14T06:34:16.448Z,94934.84
2022-12-14T06:36:43.285Z,94935.16
2022-12-14T06:39:15.779Z,94918.44
2022-12-14T06:41:43.529Z,94918.19
2022-12-14T06:44:13.044Z,94923.56
2022-12-14T06:46:40.279Z,94927.16
2022-12-14T06:49:07.706Z,94936.16
2022-12-14T06:51:41.204Z,94943.38
2022-12-14T06:54:09.521Z,94944.13
2022-12-14T06:56:37.052Z,94944.41
2022-12-14T06:59:05.318Z,94950.81
2022-12-14T07:01:32.100Z,94948.50
2022-12-14T07:03:59.687Z,94919.41
2022-12-14T07:06:28.655Z,94946.97
2022-12-14T07:08:57.020Z,94941.31
2022-12-14T07:11:24.795Z,94938.50
2022-12-14T07:13:51.754Z,94937.22
2022-12-14T07:16:23.224Z,94926.94
2022-12-14T07:18:50.150Z,94950.06
2022-12-14T07:21:18.449Z,94911.47
2022-12-14T07:23:46.928Z,94934.38
2022-12-14T07:26:17.091Z,94941.31
2022-12-14T07:28:44.521Z,94935.91
2022-12-14T07:31:20.199Z,94943.13
2022-12-14T07:33:47.332Z,94936.44
2022-12-14T07:36:16.589Z,94915.56
2022-12-14T07:38:44.956Z,94925.91
2022-12-14T07:41:15.525Z,94924.63
2022-12-14T07:43:46.248Z,94922.06
2022-12-14T07:46:19.478Z,94917.19
2022-12-14T07:48:48.416Z,94911.28
2022-12-14T07:51:17.931Z,94878.59
2022-12-14T07:53:44.741Z,94877.81
2022-12-14T07:56:14.798Z,94891.19
2022-12-14T07:58:41.739Z,94893.53
2022-12-14T08:01:11.483Z,94896.63
2022-12-14T08:03:41.847Z,94895.06
2022-12-14T08:06:10.019Z,94903.56
2022-12-14T08:08:37.001Z,94896.88
2022-12-14T08:11:04.545Z,94859.31
2022-12-14T08:13:32.246Z,94884.03
2022-12-14T08:16:06.202Z,94884.28
2022-12-14T08:18:33.313Z,94892.50
2022-12-14T08:21:01.223Z,94879.41
2022-12-14T08:23:28.219Z,94896.88
2022-12-14T08:25:56.425Z,94897.16
2022-12-14T08:28:24.046Z,94852.91
2022-12-14T08:30:51.603Z,94858.06
2022-12-14T08:33:18.901Z,94885.34
2022-12-14T08:35:45.787Z,94886.09
2022-12-14T08:38:12.704Z,94880.72
2022-12-14T08:40:39.658Z,94857.81
2022-12-14T08:43:07.140Z,94862.97
2022-12-14T08:45:33.949Z,94883.28
2022-12-14T08:48:01.589Z,94825.41
2022-12-14T08:50:31.555Z,94892.25
2022-12-14T08:52:58.161Z,94858.06
2022-12-14T08:55:29.138Z,94843.66
2022-12-14T08:57:58.221Z,94842.38
2022-12-14T09:00:24.865Z,94835.69
2022-12-14T09:02:51.940Z,94827.22
2022-12-14T09:05:18.653Z,94847.22
2022-12-14T09:07:45.871Z,94827.66
2022-12-14T09:10:12.823Z,94833.31
2022-12-14T09:12:39.983Z,94843.09
2022-12-14T09:15:07.838Z,94802.72
2022-12-14T09:17:34.597Z,94821.44
2022-12-14T09:20:01.210Z,94778.75
2022-12-14T09:22:29.377Z,94796.00
2022-12-14T09:24:56.043Z,94816.03
2022-12-14T09:27:22.748Z,94770.81
2022-12-14T09:29:49.928Z,94792.34
2022-12-14T09:32:16.715Z,94790.03
2022-12-14T09:34:43.351Z,94779.03
2022-12-14T09:37:10.145Z,94770.50
2022-12-14T09:39:36.893Z,94771.25
2022-12-14T09:42:11.874Z,94798.75
2022-12-14T09:44:47.645Z,94798.44
2022-12-14T09:47:29.358Z,94805.97
2022-12-14T09:50:02.155Z,94800.06
2022-12-14T09:52:44.465Z,94785.66
2022-12-14T09:55:52.682Z,94768.72
2022-12-14T09:58:25.634Z,94765.63
2022-12-14T10:00:59.458Z,94735.31
2022-12-14T10:03:53.810Z,94756.63
2022-12-14T10:06:29.241Z,94710.69
2022-12-14T10:09:04.079Z,94743.44
2022-12-14T10:11:46.639Z,94762.50
2022-12-14T10:14:28.461Z,94757.81
2022-12-14T10:17:01.053Z,94740.38
2022-12-14T10:19:38.478Z,94755.28
2022-12-14T10:22:10.098Z,94751.66
2022-12-14T10:24:44.980Z,94743.19
2022-12-14T10:27:22.788Z,94731.09
2022-12-14T10:30:16.804Z,94761.16
2022-12-14T10:33:13.731Z,94768.84
2022-12-14T10:35:51.358Z,94738.06
2022-12-14T10:38:35.742Z,94771.97
2022-12-14T10:41:21.870Z,94746.59
2022-12-14T10:44:19.739Z,94768.94
2022-12-14T10:47:04.946Z,94779.16
2022-12-14T10:49:43.613Z,94783.50
2022-12-14T10:52:18.799Z,94773.78
2022-12-14T10:54:56.501Z,94766.28
2022-12-14T10:57:26.490Z,94751.63
2022-12-14T11:00:07.861Z,94742.88
2022-12-14T11:02:41.798Z,94742.88
2022-12-14T11:05:36.387Z,94723.41
2022-12-14T11:08:07.258Z,94705.56
2022-12-14T11:10:36.251Z,94702.00
2022-12-14T11:13:13.038Z,94713.81
2022-12-14T11:15:45.370Z,94704.06
2022-12-14T11:18:11.987Z,94681.91
2022-12-14T11:20:51.180Z,94681.22
2022-12-14T11:23:21.163Z,94673.00
2022-12-14T11:25:50.950Z,94680.47
2022-12-14T11:28:39.709Z,94663.16
2022-12-14T11:31:24.026Z,94611.50
2022-12-14T11:33:55.799Z,94626.09
2022-12-14T11:36:40.440Z,94626.44
2022-12-14T11:39:20.424Z,94623.06
2022-12-14T11:41:59.179Z,94599.88
2022-12-14T11:44:28.699Z,94581.63
2022-12-14T11:47:04.930Z,94601.94
2022-12-14T11:49:37.699Z,94610.75
2022-12-14T11:52:04.340Z,94612.78
2022-12-14T11:54:36.550Z,94620.91
2022-12-14T11:57:07.418Z,94627.31
2022-12-14T11:59:53.475Z,94583.66
2022-12-14T12:02:23.287Z,94610.50
2022-12-14T12:04:57.447Z,94611.81
2022-12-14T12:07:32.113Z,94599.50
2022-12-14T12:10:21.997Z,94613.59
2022-12-14T12:12:54.679Z,94598.78
2022-12-14T12:15:28.235Z,94576.09
2022-12-14T12:18:06.140Z,94613.56
2022-12-14T12:20:43.035Z,94608.59
2022-12-14T12:23:19.923Z,94578.50
2022-12-14T12:25:50.086Z,94615.31
2022-12-14T12:28:30.162Z,94607.81
2022-12-14T12:31:07.426Z,94609.28
2022-12-14T12:33:49.487Z,94608.84
2022-12-14T12:36:24.309Z,94605.53
2022-12-14T12:39:06.897Z,94617.84
2022-12-14T12:41:47.434Z,94616.31
2022-12-14T12:44:26.051Z,94597.78
2022-12-14T12:47:24.820Z,94575.50
2022-12-14T12:49:51.987Z,94607.31
2022-12-14T12:52:44.966Z,94602.31
2022-12-14T12:55:17.291Z,94609.06
2022-12-14T12:57:49.155Z,94606.53
2022-12-14T13:00:19.609Z,94608.84
2022-12-14T13:02:52.805Z,94600.56
2022-12-14T13:05:49.805Z,94611.94
2022-12-14T13:08:31.954Z,94601.72
2022-12-14T13:13:52.700Z,94562.47
2022-12-14T13:16:27.642Z,94587.00
2022-12-14T13:19:19.043Z,94589.38
2022-12-14T13:21:52.117Z,94538.66
2022-12-14T13:24:21.571Z,94554.97
2022-12-14T13:27:35.318Z,94569.38
2022-12-14T13:30:33.699Z,94569.38
2022-12-14T13:33:29.206Z,94573.06
2022-12-14T13:36:20.619Z,94575.50
2022-12-14T13:38:55.983Z,94561.91
2022-12-14T13:41:22.676Z,94572.44
2022-12-14T13:44:01.609Z,94566.25
2022-12-14T13:46:30.389Z,94534.59
2022-12-14T13:49:03.163Z,94546.31
2022-12-14T13:51:34.190Z,94572.38
2022-12-14T13:54:03.680Z,94566.72
2022-12-14T13:56:34.436Z,94531.59
2022-12-14T13:59:04.580Z,94564.16
2022-12-14T14:01:40.615Z,94570.84
2022-12-14T14:04:10.455Z,94577.84
2022-12-14T14:06:41.547Z,94579.16
2022-12-14T14:09:26.554Z,94581.97
2022-12-14T14:12:26.697Z,94565.44
2022-12-14T14:15:22.676Z,94571.88
2022-12-14T14:17:54.825Z,94565.53
2022-12-14T14:20:38.801Z,94577.34
2022-12-14T14:23:14.684Z,94578.91
2022-12-14T14:26:19.214Z,94574.78
2022-12-14T14:28:49.458Z,94550.25
2022-12-14T14:31:16.321Z,94558.09
2022-12-14T14:33:55.121Z,94565.59
2022-12-14T14:36:33.047Z,94570.69
2022-12-14T14:39:31.241Z,94574.53
2022-12-14T14:41:54.855Z,94573.75
2022-12-14T14:44:30.871Z,94580.28
2022-12-14T14:46:57.756Z,94575.13
2022-12-14T14:49:24.379Z,94572.00
2022-12-14T14:51:53.022Z,94581.25
2022-12-14T14:57:33.451Z,94584.81
2022-12-14T15:00:12.456Z,94590.03
2022-12-14T15:02:41.764Z,94591.59
2022-12-14T15:05:41.518Z,94554.38
2022-12-14T15:08:05.383Z,94570.31
2022-12-14T15:10:42.082Z,94592.06
2022-12-14T15:13:19.536Z,94569.31
2022-12-14T15:15:49.742Z,94576.50
2022-12-14T15:18:23.759Z,94554.16
2022-12-14T15:21:11.620Z,94592.56
2022-12-14T15:23:49.976Z,94589.47
2022-12-14T15:26:25.743Z,94597.69
2022-12-14T15:28:58.558Z,94558.84
2022-12-14T15:31:32.355Z,94593.22
2022-12-14T15:34:00.924Z,94580.09
2022-12-14T15:36:31.996Z,94614.50
2022-12-14T15:38:59.054Z,94605.78
2022-12-14T15:41:32.968Z,94613.69
2022-12-14T15:44:00.924Z,94625.50
2022-12-14T15:46:35.739Z,94602.13
2022-12-14T15:49:05.340Z,94620.69
2022-12-14T15:51:41.097Z,94622.00
2022-12-14T15:54:16.116Z,94613.81
2022-12-14T15:56:49.019Z,94548.72
2022-12-14T15:59:16.854Z,94620.50
2022-12-14T16:01:54.364Z,94597.47
2022-12-14T16:04:27.703Z,94599.16
2022-12-14T16:07:13.469Z,94590.22
2022-12-14T16:09:44.191Z,94623.03
2022-12-14T16:12:19.626Z,94594.28
2022-12-14T16:14:54.574Z,94595.31
2022-12-14T16:17:26.593Z,94622.75
2022-12-14T16:20:02.557Z,94622.22
2022-12-14T16:22:31.039Z,94633.78
2022-12-14T16:25:02.638Z,94608.41
2022-12-14T16:27:31.114Z,94630.75
2022-12-14T16:30:26.486Z,94608.75
2022-12-14T16:33:11.152Z,94624.88
2022-12-14T16:35:38.609Z,94635.38
2022-12-14T16:38:08.447Z,94648.00
2022-12-14T16:40:43.153Z,94640.50
2022-12-14T16:43:33.069Z,94642.34
2022-12-14T16:46:00.241Z,94645.69
2022-12-14T16:48:28.871Z,94606.22
2022-12-14T16:51:38.009Z,94646.69
2022-12-14T16:54:22.406Z,94638.75
2022-12-14T16:56:54.423Z,94622.88
2022-12-14T16:59:23.058Z,94661.63
2022-12-14T17:01:53.175Z,94659.34
2022-12-14T17:04:20.934Z,94668.81
2022-12-14T17:06:52.687Z,94668.31
2022-12-14T17:09:20.430Z,94674.22
2022-12-14T17:11:48.892Z,94640.91
2022-12-14T17:14:17.839Z,94657.56
2022-12-14T17:16:46.862Z,94672.88
2022-12-14T17:19:26.774Z,94682.66
2022-12-14T17:21:53.499Z,94681.38
2022-12-14T17:24:22.256Z,94677.00
2022-12-14T17:26:49.906Z,94678.03
2022-12-14T17:29:27.478Z,94689.59
2022-12-14T17:31:57.651Z,94691.16
2022-12-14T17:34:24.983Z,94673.97
2022-12-14T17:36:51.624Z,94640.00
2022-12-14T17:39:18.344Z,94636.22
2022-12-14T17:41:45.865Z,94680.41
2022-12-14T17:44:22.386Z,94673.22
2022-12-14T17:46:52.331Z,94689.66
2022-12-14T17:49:33.953Z,94669.69
2022-12-14T17:52:04.432Z,94705.38
2022-12-14T17:54:32.215Z,94691.31
2022-12-14T17:56:59.324Z,94717.22
2022-12-14T17:59:25.982Z,94702.34
2022-12-14T18:01:52.723Z,94710.06
2022-12-14T18:04:19.588Z,94678.50
2022-12-14T18:06:46.309Z,94735.72
2022-12-14T18:09:13.011Z,94727.78
2022-12-14T18:11:54.481Z,94716.75
2022-12-14T18:14:26.166Z,94715.72
2022-12-14T18:16:53.745Z,94745.00
2022-12-14T18:19:20.404Z,94756.53
2022-12-14T18:21:47.038Z,94752.72
2022-12-14T18:24:17.402Z,94754.75
2022-12-14T18:26:46.894Z,94755.28
2022-12-14T18:29:14.796Z,94756.81
2022-12-14T18:31:41.686Z,94737.84
2022-12-14T18:34:10.906Z,94733.44
2022-12-14T18:36:37.631Z,94759.63
2022-12-14T18:39:04.615Z,94756.00
2022-12-14T18:41:31.407Z,94761.38
2022-12-14T18:43:58.356Z,94764.44
2022-12-14T18:46:25.167Z,94759.09
2022-12-14T18:48:51.870Z,94736.25
2022-12-14T18:51:26.876Z,94763.97
2022-12-14T18:53:55.440Z,94764.50
2022-12-14T18:56:24.049Z,94759.09
2022-12-14T18:58:51.812Z,94731.63
2022-12-14T19:01:22.064Z,94770.91
2022-12-14T19:03:48.999Z,94770.69
2022-12-14T19:09:05.867Z,94755.53
2022-12-14T19:11:35.821Z,94736.25
2022-12-14T19:14:02.599Z,94742.19
2022-12-14T19:16:29.540Z,94762.97
2022-12-14T19:18:56.754Z,94738.56
2022-12-14T19:21:25.464Z,94767.84
2022-12-14T19:23:52.138Z,94771.19
2022-12-14T19:26:18.852Z,94747.63
2022-12-14T19:28:45.610Z,94796.94
2022-12-14T19:31:12.885Z,94802.88
2022-12-14T19:33:39.711Z,94793.91
2022-12-14T19:36:07.680Z,94778.47
2022-12-14T19:38:35.472Z,94794.91
2022-12-14T19:41:08.035Z,94786.91
2022-12-14T19:43:35.446Z,94759.75
2022-12-14T19:46:10.838Z,94798.53
2022-12-14T19:48:38.176Z,94788.25
2022-12-14T19:51:11.391Z,94797.25
2022-12-14T19:53:39.845Z,94779.28
2022-12-14T19:56:06.877Z,94770.78
2022-12-14T19:58:33.539Z,94783.13
2022-12-14T20:01:00.219Z,94782.88
2022-12-14T20:03:27.817Z,94769.53
2022-12-14T20:05:58.754Z,94801.38
2022-12-14T20:08:27.063Z,94807.03
2022-12-14T20:10:54.043Z,94810.38
2022-12-14T20:13:23.083Z,94815.28
2022-12-14T20:15:58.154Z,94820.41
2022-12-14T20:18:26.244Z,94820.16
2022-12-14T20:20:53.202Z,94789.28
2022-12-14T20:23:21.964Z,94803.06
2022-12-14T20:25:48.897Z,94827.75
2022-12-14T20:28:15.568Z,94834.66
2022-12-14T20:30:44.671Z,94839.56
2022-12-14T20:33:11.597Z,94822.41
2022-12-14T20:35:38.502Z,94842.03
2022-12-14T20:38:05.133Z,94837.41
2022-12-14T20:40:37.975Z,94827.72
2022-12-14T20:43:06.375Z,94841.59
2022-12-14T20:45:38.126Z,94865.97
2022-12-14T20:48:05.495Z,94866.50
2022-12-14T20:50:32.373Z,94875.50
2022-12-14T20:52:58.965Z,94837.75
2022-12-14T20:55:25.591Z,94858.03
2022-12-14T20:57:52.423Z,94867.28
2022-12-14T21:00:19.192Z,94870.09
2022-12-14T21:02:45.989Z,94837.22
2022-12-14T21:05:12.703Z,94869.84
2022-12-14T21:07:39.371Z,94849.31
2022-12-14T21:10:07.821Z,94870.63
2022-12-14T21:12:34.971Z,94875.75
2022-12-14T21:15:05.375Z,94858.53
2022-12-14T21:17:32.026Z,94881.16
2022-12-14T21:19:58.770Z,94857.25
2022-12-14T21:22:27.597Z,94893.50
2022-12-14T21:25:04.386Z,94894.53
2022-12-14T21:27:33.158Z,94895.31
2022-12-14T21:30:00.608Z,94904.31
2022-12-14T21:32:27.547Z,94899.94
2022-12-14T21:34:54.137Z,94888.09
2022-12-14T21:37:20.962Z,94868.31
2022-12-14T21:39:53.973Z,94861.66
2022-12-14T21:42:23.791Z,94903.28
2022-12-14T21:44:51.569Z,94870.13
2022-12-14T21:47:21.021Z,94896.34
2022-12-14T21:49:48.280Z,94906.91
2022-12-14T21:52:18.056Z,94909.47
2022-12-14T21:54:44.955Z,94876.06
2022-12-14T21:57:34.539Z,94913.81
2022-12-14T22:00:01.334Z,94923.63
2022-12-14T22:02:28.599Z,94908.91
2022-12-14T22:04:58.287Z,94899.66
2022-12-14T22:07:29.844Z,94921.28
2022-12-14T22:09:56.497Z,94912.47
2022-12-14T22:12:23.105Z,94923.59
2022-12-14T22:14:50.134Z,94910.50
2022-12-14T22:17:17.151Z,94935.22
2022-12-14T22:19:43.734Z,94887.63
2022-12-14T22:22:15.527Z,94932.38
2022-12-14T22:24:42.593Z,94936.50
2022-12-14T22:27:11.337Z,94936.50
2022-12-14T22:29:37.971Z,94938.03
2022-12-14T22:32:05.015Z,94923.59
2022-12-14T22:34:31.705Z,94936.19
2022-12-14T22:36:58.317Z,94946.75
2022-12-14T22:39:24.947Z,94947.56
2022-12-14T22:41:51.586Z,94946.78
2022-12-14T22:44:18.237Z,94947.53
2022-12-14T22:46:45.058Z,94926.19
2022-12-14T22:49:16.762Z,94898.41
2022-12-14T22:51:43.725Z,94915.63
2022-12-14T22:54:32.658Z,94940.88
2022-12-14T22:57:36.338Z,94953.97
2022-12-14T23:00:07.730Z,94920.53
2022-12-14T23:02:34.795Z,94908.44
2022-12-14T23:05:01.587Z,94959.13
2022-12-14T23:07:28.188Z,94932.34
2022-12-14T23:10:13.315Z,94958.63
2022-12-14T23:12:59.172Z,94952.97
2022-12-14T23:15:44.438Z,94955.00
2022-12-14T23:18:29.490Z,94918.75
2022-12-14T23:21:15.486Z,94971.97
2022-12-14T23:24:02.887Z,94974.56
2022-12-14T23:26:49.157Z,94957.09
2022-12-14T23:29:34.483Z,94970.97
2022-12-14T23:32:19.758Z,94944.94
2022-12-14T23:35:05.029Z,94973.47
2022-12-14T23:37:50.315Z,94959.31
2022-12-14T23:40:35.679Z,94956.47
2022-12-14T23:43:32.376Z,94985.09
2022-12-14T23:46:18.139Z,94983.28
2022-12-14T23:49:04.025Z,94975.84
2022-12-14T23:51:49.274Z,94985.63
2022-12-14T23:54:34.970Z,94974.53
2022-12-14T23:57:24.962Z,95003.03
